sensor_id;sensor_type;location;lat;lon;timestamp;temperature;humidity
851;DHT22;412;51.400;7.480;2023-06-10T00:02:07;21.10;98.10
851;DHT22;412;51.400;7.480;2023-06-10T00:04:34;21.00;98.20
851;DHT22;412;51.400;7.480;2023-06-10T00:07:03;21.00;98.50
851;DHT22;412;51.400;7.480;2023-06-10T00:09:29;20.90;98.70
851;DHT22;412;51.400;7.480;2023-06-10T00:11:55;20.90;98.80
851;DHT22;412;51.400;7.480;2023-06-10T00:14:21;20.90;99.00
851;DHT22;412;51.400;7.480;2023-06-10T00:16:46;20.90;99.20
851;DHT22;412;51.400;7.480;2023-06-10T00:19:12;20.80;99.40
851;DHT22;412;51.400;7.480;2023-06-10T00:21:41;20.80;99.50
851;DHT22;412;51.400;7.480;2023-06-10T00:24:10;20.80;99.50
851;DHT22;412;51.400;7.480;2023-06-10T00:26:38;20.70;99.30
851;DHT22;412;51.400;7.480;2023-06-10T00:29:03;20.70;99.50
851;DHT22;412;51.400;7.480;2023-06-10T00:31:29;20.70;99.50
851;DHT22;412;51.400;7.480;2023-06-10T00:33:55;20.60;99.60
851;DHT22;412;51.400;7.480;2023-06-10T00:36:21;20.60;99.70
851;DHT22;412;51.400;7.480;2023-06-10T00:38:47;20.60;99.70
851;DHT22;412;51.400;7.480;2023-06-10T00:41:13;20.60;99.90
851;DHT22;412;51.400;7.480;2023-06-10T00:43:39;20.60;99.90
851;DHT22;412;51.400;7.480;2023-06-10T00:46:05;20.60;99.90
851;DHT22;412;51.400;7.480;2023-06-10T00:48:32;20.60;99.90
851;DHT22;412;51.400;7.480;2023-06-10T00:50:58;20.60;99.90
851;DHT22;412;51.400;7.480;2023-06-10T00:53:24;20.60;99.90
851;DHT22;412;51.400;7.480;2023-06-10T00:55:50;20.60;99.90
851;DHT22;412;51.400;7.480;2023-06-10T00:58:16;20.50;99.90
851;DHT22;412;51.400;7.480;2023-06-10T01:00:42;20.50;99.90
851;DHT22;412;51.400;7.480;2023-06-10T01:03:10;20.50;99.90
851;DHT22;412;51.400;7.480;2023-06-10T01:05:38;20.50;99.90
851;DHT22;412;51.400;7.480;2023-06-10T01:08:24;20.40;99.90
851;DHT22;412;51.400;7.480;2023-06-10T01:10:57;20.30;99.90
851;DHT22;412;51.400;7.480;2023-06-10T01:13:25;20.30;99.90
851;DHT22;412;51.400;7.480;2023-06-10T01:15:55;20.30;99.90
851;DHT22;412;51.400;7.480;2023-06-10T01:18:22;20.30;99.90
851;DHT22;412;51.400;7.480;2023-06-10T01:20:47;20.20;99.90
851;DHT22;412;51.400;7.480;2023-06-10T01:23:14;20.20;99.90
851;DHT22;412;51.400;7.480;2023-06-10T01:26:05;20.10;99.90
851;DHT22;412;51.400;7.480;2023-06-10T01:28:49;20.10;99.90
851;DHT22;412;51.400;7.480;2023-06-10T01:31:30;20.10;99.90
851;DHT22;412;51.400;7.480;2023-06-10T01:34:00;20.10;99.90
851;DHT22;412;51.400;7.480;2023-06-10T01:36:27;20.00;99.90
851;DHT22;412;51.400;7.480;2023-06-10T01:38:54;20.00;99.90
851;DHT22;412;51.400;7.480;2023-06-10T01:41:21;20.00;99.90
851;DHT22;412;51.400;7.480;2023-06-10T01:43:47;20.00;99.90
851;DHT22;412;51.400;7.480;2023-06-10T01:46:15;19.90;99.90
851;DHT22;412;51.400;7.480;2023-06-10T01:48:42;19.90;99.90
851;DHT22;412;51.400;7.480;2023-06-10T01:51:08;19.70;99.90
851;DHT22;412;51.400;7.480;2023-06-10T01:53:33;19.70;99.90
851;DHT22;412;51.400;7.480;2023-06-10T01:55:59;19.60;99.90
851;DHT22;412;51.400;7.480;2023-06-10T01:58:25;19.40;99.90
851;DHT22;412;51.400;7.480;2023-06-10T02:00:51;19.30;99.90
851;DHT22;412;51.400;7.480;2023-06-10T02:03:17;19.20;99.90
851;DHT22;412;51.400;7.480;2023-06-10T02:05:43;19.10;99.90
851;DHT22;412;51.400;7.480;2023-06-10T02:08:09;19.00;99.90
851;DHT22;412;51.400;7.480;2023-06-10T02:10:35;19.00;99.90
851;DHT22;412;51.400;7.480;2023-06-10T02:13:01;19.10;99.90
851;DHT22;412;51.400;7.480;2023-06-10T02:15:26;19.10;99.90
851;DHT22;412;51.400;7.480;2023-06-10T02:17:52;19.00;99.90
851;DHT22;412;51.400;7.480;2023-06-10T02:20:18;19.00;99.90
851;DHT22;412;51.400;7.480;2023-06-10T02:22:44;19.00;99.90
851;DHT22;412;51.400;7.480;2023-06-10T02:25:10;19.00;99.90
851;DHT22;412;51.400;7.480;2023-06-10T02:27:36;19.00;99.90
851;DHT22;412;51.400;7.480;2023-06-10T02:30:01;19.10;99.90
851;DHT22;412;51.400;7.480;2023-06-10T02:32:27;19.00;99.90
851;DHT22;412;51.400;7.480;2023-06-10T02:34:53;19.00;99.90
851;DHT22;412;51.400;7.480;2023-06-10T02:37:19;19.10;99.90
851;DHT22;412;51.400;7.480;2023-06-10T02:39:46;19.10;99.90
851;DHT22;412;51.400;7.480;2023-06-10T02:42:12;19.10;99.90
851;DHT22;412;51.400;7.480;2023-06-10T02:44:38;19.10;99.90
851;DHT22;412;51.400;7.480;2023-06-10T02:47:04;19.10;99.90
851;DHT22;412;51.400;7.480;2023-06-10T02:49:29;19.10;99.90
851;DHT22;412;51.400;7.480;2023-06-10T02:51:55;19.10;99.90
851;DHT22;412;51.400;7.480;2023-06-10T02:54:25;19.10;99.90
851;DHT22;412;51.400;7.480;2023-06-10T02:56:52;19.00;99.90
851;DHT22;412;51.400;7.480;2023-06-10T02:59:18;19.00;99.90
851;DHT22;412;51.400;7.480;2023-06-10T03:01:45;19.00;99.90
851;DHT22;412;51.400;7.480;2023-06-10T03:04:11;18.90;99.90
851;DHT22;412;51.400;7.480;2023-06-10T03:06:39;18.80;99.90
851;DHT22;412;51.400;7.480;2023-06-10T03:09:06;18.70;99.90
851;DHT22;412;51.400;7.480;2023-06-10T03:11:35;18.70;99.90
851;DHT22;412;51.400;7.480;2023-06-10T03:14:01;18.70;99.90
851;DHT22;412;51.400;7.480;2023-06-10T03:16:27;18.70;99.90
851;DHT22;412;51.400;7.480;2023-06-10T03:18:53;18.70;99.90
851;DHT22;412;51.400;7.480;2023-06-10T03:21:19;18.70;99.90
851;DHT22;412;51.400;7.480;2023-06-10T03:23:45;18.70;99.90
851;DHT22;412;51.400;7.480;2023-06-10T03:26:12;18.70;99.90
851;DHT22;412;51.400;7.480;2023-06-10T03:28:40;18.70;99.90
851;DHT22;412;51.400;7.480;2023-06-10T03:31:05;18.70;99.90
851;DHT22;412;51.400;7.480;2023-06-10T03:33:31;18.70;99.90
851;DHT22;412;51.400;7.480;2023-06-10T03:35:58;18.60;99.90
851;DHT22;412;51.400;7.480;2023-06-10T03:38:24;18.70;99.90
851;DHT22;412;51.400;7.480;2023-06-10T03:40:49;18.60;99.90
851;DHT22;412;51.400;7.480;2023-06-10T03:43:15;18.70;99.90
851;DHT22;412;51.400;7.480;2023-06-10T03:45:41;18.70;99.90
851;DHT22;412;51.400;7.480;2023-06-10T03:48:07;18.70;99.90
851;DHT22;412;51.400;7.480;2023-06-10T03:50:34;18.70;99.90
851;DHT22;412;51.400;7.480;2023-06-10T03:53:01;18.60;99.90
851;DHT22;412;51.400;7.480;2023-06-10T03:55:27;18.50;99.90
851;DHT22;412;51.400;7.480;2023-06-10T03:57:52;18.50;99.90
851;DHT22;412;51.400;7.480;2023-06-10T04:00:18;18.50;99.90
851;DHT22;412;51.400;7.480;2023-06-10T04:02:46;18.50;99.90
851;DHT22;412;51.400;7.480;2023-06-10T04:05:18;18.50;99.90
851;DHT22;412;51.400;7.480;2023-06-10T04:07:46;18.50;99.90
851;DHT22;412;51.400;7.480;2023-06-10T04:10:14;18.50;99.90
851;DHT22;412;51.400;7.480;2023-06-10T04:12:40;18.60;99.90
851;DHT22;412;51.400;7.480;2023-06-10T04:15:07;18.60;99.90
851;DHT22;412;51.400;7.480;2023-06-10T04:17:32;18.60;99.90
851;DHT22;412;51.400;7.480;2023-06-10T04:19:58;18.60;99.90
851;DHT22;412;51.400;7.480;2023-06-10T04:22:24;18.60;99.90
851;DHT22;412;51.400;7.480;2023-06-10T04:24:50;18.60;99.90
851;DHT22;412;51.400;7.480;2023-06-10T04:27:16;18.60;99.90
851;DHT22;412;51.400;7.480;2023-06-10T04:29:42;18.60;99.90
851;DHT22;412;51.400;7.480;2023-06-10T04:32:07;18.70;99.90
851;DHT22;412;51.400;7.480;2023-06-10T04:34:34;18.70;99.90
851;DHT22;412;51.400;7.480;2023-06-10T04:37:00;18.70;99.90
851;DHT22;412;51.400;7.480;2023-06-10T04:39:26;18.60;99.90
851;DHT22;412;51.400;7.480;2023-06-10T04:41:51;18.60;99.90
851;DHT22;412;51.400;7.480;2023-06-10T04:44:17;18.60;99.90
851;DHT22;412;51.400;7.480;2023-06-10T04:46:44;18.60;99.90
851;DHT22;412;51.400;7.480;2023-06-10T04:49:10;18.50;99.90
851;DHT22;412;51.400;7.480;2023-06-10T04:51:36;18.40;99.90
851;DHT22;412;51.400;7.480;2023-06-10T04:54:03;18.40;99.90
851;DHT22;412;51.400;7.480;2023-06-10T04:56:30;18.50;99.90
851;DHT22;412;51.400;7.480;2023-06-10T04:58:58;18.60;99.90
851;DHT22;412;51.400;7.480;2023-06-10T05:01:24;18.70;99.90
851;DHT22;412;51.400;7.480;2023-06-10T05:03:50;18.80;99.90
851;DHT22;412;51.400;7.480;2023-06-10T05:06:16;18.90;99.90
851;DHT22;412;51.400;7.480;2023-06-10T05:08:42;19.00;99.90
851;DHT22;412;51.400;7.480;2023-06-10T05:11:07;19.00;99.90
851;DHT22;412;51.400;7.480;2023-06-10T05:13:34;19.00;99.90
851;DHT22;412;51.400;7.480;2023-06-10T05:16:00;19.20;99.90
851;DHT22;412;51.400;7.480;2023-06-10T05:18:25;19.20;99.90
851;DHT22;412;51.400;7.480;2023-06-10T05:20:52;19.20;99.90
851;DHT22;412;51.400;7.480;2023-06-10T05:23:19;19.00;99.90
851;DHT22;412;51.400;7.480;2023-06-10T05:25:45;19.10;99.90
851;DHT22;412;51.400;7.480;2023-06-10T05:28:11;19.00;99.90
851;DHT22;412;51.400;7.480;2023-06-10T05:30:37;19.00;99.90
851;DHT22;412;51.400;7.480;2023-06-10T05:33:04;19.00;99.90
851;DHT22;412;51.400;7.480;2023-06-10T05:35:30;19.00;99.90
851;DHT22;412;51.400;7.480;2023-06-10T05:37:56;19.00;99.90
851;DHT22;412;51.400;7.480;2023-06-10T05:40:27;18.90;99.90
851;DHT22;412;51.400;7.480;2023-06-10T05:42:53;19.00;99.90
851;DHT22;412;51.400;7.480;2023-06-10T05:45:18;19.00;99.90
851;DHT22;412;51.400;7.480;2023-06-10T05:47:44;19.10;99.90
851;DHT22;412;51.400;7.480;2023-06-10T05:50:10;19.20;99.90
851;DHT22;412;51.400;7.480;2023-06-10T05:52:36;19.20;99.90
851;DHT22;412;51.400;7.480;2023-06-10T05:55:05;19.40;99.90
851;DHT22;412;51.400;7.480;2023-06-10T05:57:31;19.40;99.90
851;DHT22;412;51.400;7.480;2023-06-10T05:59:57;19.60;99.90
851;DHT22;412;51.400;7.480;2023-06-10T06:02:22;19.80;99.90
851;DHT22;412;51.400;7.480;2023-06-10T06:04:48;19.90;99.90
851;DHT22;412;51.400;7.480;2023-06-10T06:07:14;20.00;99.90
851;DHT22;412;51.400;7.480;2023-06-10T06:09:40;20.10;99.90
851;DHT22;412;51.400;7.480;2023-06-10T06:12:07;20.20;99.90
851;DHT22;412;51.400;7.480;2023-06-10T06:14:37;20.20;99.90
851;DHT22;412;51.400;7.480;2023-06-10T06:17:03;20.20;99.90
851;DHT22;412;51.400;7.480;2023-06-10T06:19:29;20.20;99.90
851;DHT22;412;51.400;7.480;2023-06-10T06:21:55;20.20;99.90
851;DHT22;412;51.400;7.480;2023-06-10T06:24:20;20.30;99.90
851;DHT22;412;51.400;7.480;2023-06-10T06:26:46;20.40;99.90
851;DHT22;412;51.400;7.480;2023-06-10T06:29:12;20.50;99.90
851;DHT22;412;51.400;7.480;2023-06-10T06:31:37;20.60;99.90
851;DHT22;412;51.400;7.480;2023-06-10T06:34:03;20.60;99.90
851;DHT22;412;51.400;7.480;2023-06-10T06:36:29;20.70;99.90
851;DHT22;412;51.400;7.480;2023-06-10T06:38:55;20.80;99.90
851;DHT22;412;51.400;7.480;2023-06-10T06:41:21;20.90;99.90
851;DHT22;412;51.400;7.480;2023-06-10T06:43:47;21.00;99.90
851;DHT22;412;51.400;7.480;2023-06-10T06:46:13;21.10;99.90
851;DHT22;412;51.400;7.480;2023-06-10T06:48:39;21.00;99.90
851;DHT22;412;51.400;7.480;2023-06-10T06:51:04;21.10;99.90
851;DHT22;412;51.400;7.480;2023-06-10T06:53:30;21.20;99.90
851;DHT22;412;51.400;7.480;2023-06-10T06:55:56;21.30;99.90
851;DHT22;412;51.400;7.480;2023-06-10T06:58:22;21.40;99.90
851;DHT22;412;51.400;7.480;2023-06-10T07:00:47;21.50;99.90
851;DHT22;412;51.400;7.480;2023-06-10T07:03:13;21.50;99.90
851;DHT22;412;51.400;7.480;2023-06-10T07:05:39;21.60;99.90
851;DHT22;412;51.400;7.480;2023-06-10T07:08:05;21.70;99.90
851;DHT22;412;51.400;7.480;2023-06-10T07:10:31;21.70;99.90
851;DHT22;412;51.400;7.480;2023-06-10T07:12:56;21.90;99.90
851;DHT22;412;51.400;7.480;2023-06-10T07:15:22;22.10;99.90
851;DHT22;412;51.400;7.480;2023-06-10T07:17:48;22.20;99.90
851;DHT22;412;51.400;7.480;2023-06-10T07:20:14;22.40;99.90
851;DHT22;412;51.400;7.480;2023-06-10T07:22:41;22.60;99.90
851;DHT22;412;51.400;7.480;2023-06-10T07:25:07;22.70;99.90
851;DHT22;412;51.400;7.480;2023-06-10T07:27:33;22.80;99.70
851;DHT22;412;51.400;7.480;2023-06-10T07:29:59;23.00;99.90
851;DHT22;412;51.400;7.480;2023-06-10T07:32:26;23.00;99.70
851;DHT22;412;51.400;7.480;2023-06-10T07:34:52;23.20;98.10
851;DHT22;412;51.400;7.480;2023-06-10T07:37:18;23.30;97.10
851;DHT22;412;51.400;7.480;2023-06-10T07:39:45;23.40;97.30
851;DHT22;412;51.400;7.480;2023-06-10T07:42:11;23.50;97.40
851;DHT22;412;51.400;7.480;2023-06-10T07:44:36;23.60;97.00
851;DHT22;412;51.400;7.480;2023-06-10T07:47:02;23.60;95.50
851;DHT22;412;51.400;7.480;2023-06-10T07:49:28;23.70;94.80
851;DHT22;412;51.400;7.480;2023-06-10T07:51:54;23.80;94.20
851;DHT22;412;51.400;7.480;2023-06-10T07:54:21;23.90;95.10
851;DHT22;412;51.400;7.480;2023-06-10T07:56:47;23.90;95.00
851;DHT22;412;51.400;7.480;2023-06-10T07:59:14;24.10;95.30
851;DHT22;412;51.400;7.480;2023-06-10T08:01:39;24.20;95.20
851;DHT22;412;51.400;7.480;2023-06-10T08:04:06;24.20;93.80
851;DHT22;412;51.400;7.480;2023-06-10T08:06:32;24.40;94.20
851;DHT22;412;51.400;7.480;2023-06-10T08:08:58;24.50;94.00
851;DHT22;412;51.400;7.480;2023-06-10T08:11:23;24.60;93.10
851;DHT22;412;51.400;7.480;2023-06-10T08:13:49;24.80;93.60
851;DHT22;412;51.400;7.480;2023-06-10T08:16:16;24.90;92.20
851;DHT22;412;51.400;7.480;2023-06-10T08:18:41;25.00;91.50
851;DHT22;412;51.400;7.480;2023-06-10T08:21:07;25.00;91.70
851;DHT22;412;51.400;7.480;2023-06-10T08:23:33;25.10;92.70
851;DHT22;412;51.400;7.480;2023-06-10T08:25:59;25.20;92.00
851;DHT22;412;51.400;7.480;2023-06-10T08:28:24;25.20;92.20
851;DHT22;412;51.400;7.480;2023-06-10T08:30:52;25.30;92.40
851;DHT22;412;51.400;7.480;2023-06-10T08:33:18;25.40;92.00
851;DHT22;412;51.400;7.480;2023-06-10T08:35:43;25.40;91.50
851;DHT22;412;51.400;7.480;2023-06-10T08:38:09;25.40;91.70
851;DHT22;412;51.400;7.480;2023-06-10T08:40:35;25.50;92.20
851;DHT22;412;51.400;7.480;2023-06-10T08:43:07;25.60;91.30
851;DHT22;412;51.400;7.480;2023-06-10T08:45:35;25.80;92.60
851;DHT22;412;51.400;7.480;2023-06-10T08:48:03;25.90;92.40
851;DHT22;412;51.400;7.480;2023-06-10T08:50:34;25.90;92.10
851;DHT22;412;51.400;7.480;2023-06-10T08:53:04;25.90;89.50
851;DHT22;412;51.400;7.480;2023-06-10T08:55:35;25.90;90.50
851;DHT22;412;51.400;7.480;2023-06-10T08:58:02;26.00;90.10
851;DHT22;412;51.400;7.480;2023-06-10T09:00:28;26.10;89.40
851;DHT22;412;51.400;7.480;2023-06-10T09:02:56;26.10;87.20
851;DHT22;412;51.400;7.480;2023-06-10T09:05:22;26.20;85.80
851;DHT22;412;51.400;7.480;2023-06-10T09:07:49;26.00;83.50
851;DHT22;412;51.400;7.480;2023-06-10T09:10:16;26.10;87.60
851;DHT22;412;51.400;7.480;2023-06-10T09:12:42;26.20;85.30
851;DHT22;412;51.400;7.480;2023-06-10T09:15:08;26.30;85.90
851;DHT22;412;51.400;7.480;2023-06-10T09:17:34;26.50;87.40
851;DHT22;412;51.400;7.480;2023-06-10T09:20:02;26.60;88.00
851;DHT22;412;51.400;7.480;2023-06-10T09:22:28;26.70;87.60
851;DHT22;412;51.400;7.480;2023-06-10T09:25:08;26.90;90.20
851;DHT22;412;51.400;7.480;2023-06-10T09:27:47;27.00;87.20
851;DHT22;412;51.400;7.480;2023-06-10T09:32:53;27.10;84.80
851;DHT22;412;51.400;7.480;2023-06-10T09:35:19;26.80;87.10
851;DHT22;412;51.400;7.480;2023-06-10T09:37:45;26.60;88.60
851;DHT22;412;51.400;7.480;2023-06-10T09:40:12;26.40;88.30
851;DHT22;412;51.400;7.480;2023-06-10T09:42:38;25.90;89.50
851;DHT22;412;51.400;7.480;2023-06-10T09:45:05;25.60;90.20
851;DHT22;412;51.400;7.480;2023-06-10T09:47:31;25.40;90.70
851;DHT22;412;51.400;7.480;2023-06-10T09:49:57;25.30;91.50
851;DHT22;412;51.400;7.480;2023-06-10T09:52:24;25.50;91.90
851;DHT22;412;51.400;7.480;2023-06-10T09:54:54;25.60;91.70
851;DHT22;412;51.400;7.480;2023-06-10T09:57:23;25.60;91.30
851;DHT22;412;51.400;7.480;2023-06-10T09:59:53;25.70;91.40
851;DHT22;412;51.400;7.480;2023-06-10T10:02:19;25.50;91.20
851;DHT22;412;51.400;7.480;2023-06-10T10:04:45;25.30;92.30
851;DHT22;412;51.400;7.480;2023-06-10T10:07:11;25.60;92.60
851;DHT22;412;51.400;7.480;2023-06-10T10:09:38;25.70;92.70
851;DHT22;412;51.400;7.480;2023-06-10T10:12:12;25.60;91.50
851;DHT22;412;51.400;7.480;2023-06-10T10:14:39;25.40;91.60
851;DHT22;412;51.400;7.480;2023-06-10T10:17:10;25.30;91.90
851;DHT22;412;51.400;7.480;2023-06-10T10:20:03;25.20;92.10
851;DHT22;412;51.400;7.480;2023-06-10T10:22:38;25.40;94.00
851;DHT22;412;51.400;7.480;2023-06-10T10:25:12;25.70;92.30
851;DHT22;412;51.400;7.480;2023-06-10T10:27:48;25.90;91.60
851;DHT22;412;51.400;7.480;2023-06-10T10:30:14;26.30;93.00
851;DHT22;412;51.400;7.480;2023-06-10T10:33:06;26.70;90.60
851;DHT22;412;51.400;7.480;2023-06-10T10:35:36;27.10;91.30
851;DHT22;412;51.400;7.480;2023-06-10T10:38:03;27.40;89.00
851;DHT22;412;51.400;7.480;2023-06-10T10:40:29;27.60;84.40
851;DHT22;412;51.400;7.480;2023-06-10T10:42:56;27.90;87.30
851;DHT22;412;51.400;7.480;2023-06-10T10:45:23;28.10;84.60
851;DHT22;412;51.400;7.480;2023-06-10T10:47:53;28.40;85.90
851;DHT22;412;51.400;7.480;2023-06-10T10:50:21;28.60;83.40
851;DHT22;412;51.400;7.480;2023-06-10T10:53:07;28.80;81.30
851;DHT22;412;51.400;7.480;2023-06-10T10:55:33;29.00;83.00
851;DHT22;412;51.400;7.480;2023-06-10T10:58:02;29.20;81.50
851;DHT22;412;51.400;7.480;2023-06-10T11:00:36;29.30;78.60
851;DHT22;412;51.400;7.480;2023-06-10T11:05:36;29.60;79.80
851;DHT22;412;51.400;7.480;2023-06-10T11:08:02;29.70;79.50
851;DHT22;412;51.400;7.480;2023-06-10T11:12:56;29.90;77.20
851;DHT22;412;51.400;7.480;2023-06-10T11:15:29;29.90;75.20
851;DHT22;412;51.400;7.480;2023-06-10T11:18:23;29.90;74.20
851;DHT22;412;51.400;7.480;2023-06-10T11:31:29;30.20;74.10
851;DHT22;412;51.400;7.480;2023-06-10T11:34:00;30.20;72.20
851;DHT22;412;51.400;7.480;2023-06-10T11:36:28;30.30;71.80
851;DHT22;412;51.400;7.480;2023-06-10T11:39:02;30.30;71.10
851;DHT22;412;51.400;7.480;2023-06-10T11:41:29;30.30;72.70
851;DHT22;412;51.400;7.480;2023-06-10T11:43:58;30.40;71.20
851;DHT22;412;51.400;7.480;2023-06-10T11:46:28;30.30;68.10
851;DHT22;412;51.400;7.480;2023-06-10T11:48:56;30.40;69.00
851;DHT22;412;51.400;7.480;2023-06-10T11:51:25;30.40;70.00
851;DHT22;412;51.400;7.480;2023-06-10T11:53:51;30.40;70.80
851;DHT22;412;51.400;7.480;2023-06-10T11:56:29;30.50;71.80
851;DHT22;412;51.400;7.480;2023-06-10T11:59:03;30.60;72.00
851;DHT22;412;51.400;7.480;2023-06-10T12:01:31;30.60;71.50
851;DHT22;412;51.400;7.480;2023-06-10T12:04:08;30.60;69.50
851;DHT22;412;51.400;7.480;2023-06-10T12:06:44;30.60;69.00
851;DHT22;412;51.400;7.480;2023-06-10T12:09:25;30.50;68.60
851;DHT22;412;51.400;7.480;2023-06-10T12:12:00;30.50;69.80
851;DHT22;412;51.400;7.480;2023-06-10T12:14:58;30.50;70.20
851;DHT22;412;51.400;7.480;2023-06-10T12:20:00;30.50;69.00
851;DHT22;412;51.400;7.480;2023-06-10T12:22:26;30.50;69.20
851;DHT22;412;51.400;7.480;2023-06-10T12:25:02;30.50;66.90
851;DHT22;412;51.400;7.480;2023-06-10T12:27:30;30.50;66.30
851;DHT22;412;51.400;7.480;2023-06-10T12:29:57;30.40;67.80
851;DHT22;412;51.400;7.480;2023-06-10T12:32:44;30.40;66.40
851;DHT22;412;51.400;7.480;2023-06-10T12:35:18;30.20;66.90
851;DHT22;412;51.400;7.480;2023-06-10T12:40:29;30.20;65.90
851;DHT22;412;51.400;7.480;2023-06-10T12:42:55;30.20;62.80
851;DHT22;412;51.400;7.480;2023-06-10T12:45:31;30.20;65.80
851;DHT22;412;51.400;7.480;2023-06-10T12:48:23;30.20;64.70
851;DHT22;412;51.400;7.480;2023-06-10T12:50:53;30.30;64.00
851;DHT22;412;51.400;7.480;2023-06-10T12:53:20;30.30;64.40
851;DHT22;412;51.400;7.480;2023-06-10T12:55:46;30.30;63.90
851;DHT22;412;51.400;7.480;2023-06-10T12:58:13;30.30;64.40
851;DHT22;412;51.400;7.480;2023-06-10T13:00:39;30.30;62.70
851;DHT22;412;51.400;7.480;2023-06-10T13:03:06;30.20;63.10
851;DHT22;412;51.400;7.480;2023-06-10T13:05:32;30.20;64.20
851;DHT22;412;51.400;7.480;2023-06-10T13:07:59;30.20;61.70
851;DHT22;412;51.400;7.480;2023-06-10T13:10:25;30.20;61.70
851;DHT22;412;51.400;7.480;2023-06-10T13:12:52;30.20;63.10
851;DHT22;412;51.400;7.480;2023-06-10T13:15:17;30.20;60.40
851;DHT22;412;51.400;7.480;2023-06-10T13:17:44;30.30;62.90
851;DHT22;412;51.400;7.480;2023-06-10T13:20:12;30.20;59.90
851;DHT22;412;51.400;7.480;2023-06-10T13:22:38;30.00;61.60
851;DHT22;412;51.400;7.480;2023-06-10T13:25:04;29.90;59.60
851;DHT22;412;51.400;7.480;2023-06-10T13:27:32;29.90;60.70
851;DHT22;412;51.400;7.480;2023-06-10T13:29:58;29.70;61.50
851;DHT22;412;51.400;7.480;2023-06-10T13:32:24;29.50;60.60
851;DHT22;412;51.400;7.480;2023-06-10T13:34:49;29.40;62.90
851;DHT22;412;51.400;7.480;2023-06-10T13:37:16;29.40;64.50
851;DHT22;412;51.400;7.480;2023-06-10T13:39:45;29.40;63.90
851;DHT22;412;51.400;7.480;2023-06-10T13:42:14;29.50;63.40
851;DHT22;412;51.400;7.480;2023-06-10T13:44:40;29.60;62.70
851;DHT22;412;51.400;7.480;2023-06-10T13:47:13;29.70;62.00
851;DHT22;412;51.400;7.480;2023-06-10T13:49:39;29.70;60.90
851;DHT22;412;51.400;7.480;2023-06-10T13:52:06;29.60;60.10
851;DHT22;412;51.400;7.480;2023-06-10T13:54:32;29.70;63.60
851;DHT22;412;51.400;7.480;2023-06-10T13:56:58;29.70;62.20
851;DHT22;412;51.400;7.480;2023-06-10T13:59:26;29.70;61.40
851;DHT22;412;51.400;7.480;2023-06-10T14:01:52;29.70;61.40
851;DHT22;412;51.400;7.480;2023-06-10T14:04:17;29.80;60.40
851;DHT22;412;51.400;7.480;2023-06-10T14:06:43;29.70;62.40
851;DHT22;412;51.400;7.480;2023-06-10T14:09:10;29.70;61.90
851;DHT22;412;51.400;7.480;2023-06-10T14:11:36;29.70;59.90
851;DHT22;412;51.400;7.480;2023-06-10T14:14:01;29.60;61.10
851;DHT22;412;51.400;7.480;2023-06-10T14:16:27;29.60;60.20
851;DHT22;412;51.400;7.480;2023-06-10T14:18:53;29.70;60.70
851;DHT22;412;51.400;7.480;2023-06-10T14:21:19;29.70;60.10
851;DHT22;412;51.400;7.480;2023-06-10T14:23:45;29.70;60.70
851;DHT22;412;51.400;7.480;2023-06-10T14:26:11;29.70;60.50
851;DHT22;412;51.400;7.480;2023-06-10T14:28:37;29.70;59.60
851;DHT22;412;51.400;7.480;2023-06-10T14:31:03;29.70;59.90
851;DHT22;412;51.400;7.480;2023-06-10T14:33:29;29.70;61.20
851;DHT22;412;51.400;7.480;2023-06-10T14:35:56;29.90;61.10
851;DHT22;412;51.400;7.480;2023-06-10T14:38:22;29.80;58.90
851;DHT22;412;51.400;7.480;2023-06-10T14:40:48;29.80;59.50
851;DHT22;412;51.400;7.480;2023-06-10T14:43:14;29.80;61.00
851;DHT22;412;51.400;7.480;2023-06-10T14:45:40;29.70;58.60
851;DHT22;412;51.400;7.480;2023-06-10T14:48:06;29.70;59.60
851;DHT22;412;51.400;7.480;2023-06-10T14:50:36;29.60;59.00
851;DHT22;412;51.400;7.480;2023-06-10T14:53:02;29.60;59.20
851;DHT22;412;51.400;7.480;2023-06-10T14:55:28;29.60;58.60
851;DHT22;412;51.400;7.480;2023-06-10T14:57:53;29.50;58.60
851;DHT22;412;51.400;7.480;2023-06-10T15:00:20;29.40;58.40
851;DHT22;412;51.400;7.480;2023-06-10T15:02:48;29.30;59.60
851;DHT22;412;51.400;7.480;2023-06-10T15:05:14;29.30;61.00
851;DHT22;412;51.400;7.480;2023-06-10T15:07:45;29.30;59.50
851;DHT22;412;51.400;7.480;2023-06-10T15:10:11;29.20;59.80
851;DHT22;412;51.400;7.480;2023-06-10T15:12:37;29.20;59.80
851;DHT22;412;51.400;7.480;2023-06-10T15:15:03;29.30;59.90
851;DHT22;412;51.400;7.480;2023-06-10T15:17:29;29.30;59.10
851;DHT22;412;51.400;7.480;2023-06-10T15:19:55;29.20;60.20
851;DHT22;412;51.400;7.480;2023-06-10T15:22:21;29.20;58.90
851;DHT22;412;51.400;7.480;2023-06-10T15:24:47;29.10;59.30
851;DHT22;412;51.400;7.480;2023-06-10T15:27:13;29.10;59.30
851;DHT22;412;51.400;7.480;2023-06-10T15:29:39;29.10;60.40
851;DHT22;412;51.400;7.480;2023-06-10T15:32:05;29.00;59.60
851;DHT22;412;51.400;7.480;2023-06-10T15:34:31;28.90;60.10
851;DHT22;412;51.400;7.480;2023-06-10T15:36:57;28.90;60.60
851;DHT22;412;51.400;7.480;2023-06-10T15:39:22;28.90;62.30
851;DHT22;412;51.400;7.480;2023-06-10T15:41:50;28.80;62.10
851;DHT22;412;51.400;7.480;2023-06-10T15:44:15;28.70;61.60
851;DHT22;412;51.400;7.480;2023-06-10T15:46:41;28.60;61.60
851;DHT22;412;51.400;7.480;2023-06-10T15:49:07;28.50;63.80
851;DHT22;412;51.400;7.480;2023-06-10T15:51:33;28.40;63.10
851;DHT22;412;51.400;7.480;2023-06-10T15:53:59;28.30;62.40
851;DHT22;412;51.400;7.480;2023-06-10T15:56:25;28.30;62.30
851;DHT22;412;51.400;7.480;2023-06-10T15:58:51;28.30;61.90
851;DHT22;412;51.400;7.480;2023-06-10T16:01:17;28.20;62.40
851;DHT22;412;51.400;7.480;2023-06-10T16:03:43;28.20;63.00
851;DHT22;412;51.400;7.480;2023-06-10T16:06:08;28.30;63.70
851;DHT22;412;51.400;7.480;2023-06-10T16:08:34;28.30;65.50
851;DHT22;412;51.400;7.480;2023-06-10T16:11:00;28.30;64.70
851;DHT22;412;51.400;7.480;2023-06-10T16:13:26;28.30;64.00
851;DHT22;412;51.400;7.480;2023-06-10T16:15:52;28.30;62.90
851;DHT22;412;51.400;7.480;2023-06-10T16:18:18;28.20;62.00
851;DHT22;412;51.400;7.480;2023-06-10T16:20:43;28.20;63.90
851;DHT22;412;51.400;7.480;2023-06-10T16:23:09;28.20;64.10
851;DHT22;412;51.400;7.480;2023-06-10T16:25:35;28.20;65.30
851;DHT22;412;51.400;7.480;2023-06-10T16:28:01;28.20;64.30
851;DHT22;412;51.400;7.480;2023-06-10T16:30:27;28.10;64.60
851;DHT22;412;51.400;7.480;2023-06-10T16:32:53;28.10;64.70
851;DHT22;412;51.400;7.480;2023-06-10T16:35:19;28.10;65.30
851;DHT22;412;51.400;7.480;2023-06-10T16:37:45;28.10;65.60
851;DHT22;412;51.400;7.480;2023-06-10T16:40:13;28.00;64.30
851;DHT22;412;51.400;7.480;2023-06-10T16:42:39;27.90;65.00
851;DHT22;412;51.400;7.480;2023-06-10T16:45:05;27.90;65.60
851;DHT22;412;51.400;7.480;2023-06-10T16:47:31;27.90;65.30
851;DHT22;412;51.400;7.480;2023-06-10T16:49:56;27.90;65.70
851;DHT22;412;51.400;7.480;2023-06-10T16:52:22;27.90;64.80
851;DHT22;412;51.400;7.480;2023-06-10T16:54:48;27.80;65.80
851;DHT22;412;51.400;7.480;2023-06-10T16:57:13;27.70;66.10
851;DHT22;412;51.400;7.480;2023-06-10T16:59:42;27.70;67.20